createdAt,value
2023-03-21T00:01:35.114Z,10.50
2023-03-21T00:04:02.402Z,10.20
2023-03-21T00:06:29.337Z,10.20
2023-03-21T00:08:56.229Z,10.10
2023-03-21T00:11:23.093Z,10.20
2023-03-21T00:13:49.956Z,10.50
2023-03-21T00:16:22.963Z,10.20
2023-03-21T00:18:57.419Z,10.50
2023-03-21T00:24:15.116Z,10.30
2023-03-21T00:26:41.977Z,10.30
2023-03-21T00:29:08.829Z,10.30
2023-03-21T00:31:35.759Z,10.40
2023-03-21T00:34:02.633Z,10.30
2023-03-21T00:36:29.592Z,10.40
2023-03-21T00:38:56.495Z,10.20
2023-03-21T00:41:39.256Z,10.20
2023-03-21T00:44:08.489Z,10.20
2023-03-21T00:46:44.066Z,10.10
2023-03-21T00:49:14.012Z,10.10
2023-03-21T00:51:43.595Z,10.10
2023-03-21T00:54:13.024Z,10.00
2023-03-21T00:56:39.869Z,10.00
2023-03-21T00:59:06.704Z,10.10
2023-03-21T01:01:33.688Z,10.20
2023-03-21T01:04:05.333Z,10.10
2023-03-21T01:06:39.256Z,10.20
2023-03-21T01:09:17.193Z,10.10
2023-03-21T01:11:45.201Z,10.10
2023-03-21T01:14:22.322Z,10.20
2023-03-21T01:16:52.815Z,10.20
2023-03-21T01:19:27.579Z,10.20
2023-03-21T01:21:57.303Z,10.20
2023-03-21T01:24:24.311Z,10.20
2023-03-21T01:26:51.254Z,10.20
2023-03-21T01:29:18.110Z,10.30
2023-03-21T01:31:45.105Z,10.20
2023-03-21T01:34:11.997Z,10.20
2023-03-21T01:36:38.973Z,10.10
2023-03-21T01:39:06.700Z,10.10
2023-03-21T01:41:43.984Z,10.10
2023-03-21T01:44:17.392Z,10.10
2023-03-21T01:49:45.692Z,10.20
2023-03-21T01:52:26.484Z,10.10
2023-03-21T01:54:57.975Z,10.00
2023-03-21T01:57:40.429Z,10.00
2023-03-21T02:00:12.945Z,10.10
2023-03-21T02:02:58.183Z,10.00
2023-03-21T02:05:49.136Z,10.00
2023-03-21T02:08:16.430Z,10.00
2023-03-21T02:10:45.670Z,10.00
2023-03-21T02:13:12.639Z,10.10
2023-03-21T02:15:44.001Z,10.10
2023-03-21T02:18:35.426Z,10.00
2023-03-21T02:21:30.307Z,10.00
2023-03-21T02:23:57.129Z,10.10
2023-03-21T02:26:48.103Z,10.00
2023-03-21T02:29:34.908Z,10.00
2023-03-21T02:32:37.056Z,10.10
2023-03-21T02:35:35.434Z,10.10
2023-03-21T02:38:24.671Z,10.10
2023-03-21T02:41:18.367Z,10.10
2023-03-21T02:44:08.865Z,10.10
2023-03-21T02:47:03.067Z,10.10
2023-03-21T02:49:38.342Z,10.00
2023-03-21T02:52:15.502Z,10.10
2023-03-21T02:54:48.980Z,10.00
2023-03-21T02:57:19.311Z,10.20
2023-03-21T02:59:55.434Z,10.10
2023-03-21T03:02:28.197Z,10.10
2023-03-21T03:04:55.681Z,10.10
2023-03-21T03:07:48.538Z,10.10
2023-03-21T03:10:30.751Z,10.10
2023-03-21T03:12:57.588Z,10.10
2023-03-21T03:15:56.883Z,10.10
2023-03-21T03:18:45.488Z,10.10
2023-03-21T03:21:40.206Z,10.10
2023-03-21T03:24:10.457Z,10.10
2023-03-21T03:26:48.292Z,10.20
2023-03-21T03:29:18.407Z,10.20
2023-03-21T03:32:15.404Z,10.30
2023-03-21T03:34:51.126Z,10.30
2023-03-21T03:37:26.169Z,10.30
2023-03-21T03:40:16.755Z,10.30
2023-03-21T03:42:49.751Z,10.30
2023-03-21T03:45:17.252Z,10.30
2023-03-21T03:48:05.947Z,10.30
2023-03-21T03:50:49.741Z,10.30
2023-03-21T03:53:34.299Z,10.30
2023-03-21T03:56:02.058Z,10.30
2023-03-21T03:58:44.610Z,10.30
2023-03-21T04:01:12.384Z,10.30
2023-03-21T04:03:48.958Z,10.30
2023-03-21T04:06:17.992Z,10.30
2023-03-21T04:08:44.927Z,10.30
2023-03-21T04:11:16.297Z,10.30
2023-03-21T04:13:43.319Z,10.30
2023-03-21T04:16:11.700Z,10.30
2023-03-21T04:18:41.825Z,10.30
2023-03-21T04:21:12.803Z,10.30
2023-03-21T04:23:40.853Z,10.40
2023-03-21T04:26:08.360Z,10.30
2023-03-21T04:28:36.911Z,10.30
2023-03-21T04:31:13.549Z,10.30
2023-03-21T04:33:50.077Z,10.30
2023-03-21T04:36:25.132Z,10.30
2023-03-21T04:38:52.426Z,10.30
2023-03-21T04:41:19.459Z,10.30
2023-03-21T04:43:47.417Z,10.30
2023-03-21T04:46:14.391Z,10.50
2023-03-21T04:48:41.295Z,10.30
2023-03-21T04:51:08.153Z,10.30
2023-03-21T04:53:35.290Z,10.40
2023-03-21T04:56:02.176Z,10.30
2023-03-21T04:58:29.719Z,10.30
2023-03-21T05:00:57.343Z,10.30
2023-03-21T05:03:25.030Z,10.30
2023-03-21T05:05:51.968Z,10.30
2023-03-21T05:08:18.832Z,10.50
2023-03-21T05:10:45.785Z,10.30
2023-03-21T05:13:12.600Z,10.50
2023-03-21T05:15:39.516Z,10.30
2023-03-21T05:18:11.015Z,10.10
2023-03-21T05:20:42.831Z,10.30
2023-03-21T05:23:11.699Z,10.40
2023-03-21T05:25:40.173Z,10.60
2023-03-21T05:28:07.692Z,10.30
2023-03-21T05:30:34.989Z,10.30
2023-03-21T05:33:01.988Z,10.30
2023-03-21T05:35:28.989Z,10.30
2023-03-21T05:37:56.125Z,10.50
2023-03-21T05:40:23.025Z,10.30
2023-03-21T05:42:49.886Z,10.30
2023-03-21T05:45:16.916Z,10.50
2023-03-21T05:47:44.157Z,10.30
2023-03-21T05:50:13.304Z,10.40
2023-03-21T05:52:40.563Z,10.50
2023-03-21T05:55:08.080Z,10.40
2023-03-21T05:57:39.191Z,10.40
2023-03-21T06:00:08.371Z,10.40
2023-03-21T06:02:35.335Z,10.40
2023-03-21T06:05:02.409Z,10.40
2023-03-21T06:07:30.148Z,10.60
2023-03-21T06:09:57.007Z,10.50
2023-03-21T06:12:23.962Z,10.70
2023-03-21T06:14:50.904Z,10.70
2023-03-21T06:17:17.728Z,10.60
2023-03-21T06:19:44.677Z,10.60
2023-03-21T06:22:14.655Z,10.60
2023-03-21T06:24:41.740Z,10.90
2023-03-21T06:27:08.610Z,10.70
2023-03-21T06:29:35.738Z,10.70
2023-03-21T06:32:02.756Z,10.80
2023-03-21T06:34:29.724Z,10.80
2023-03-21T06:36:56.592Z,10.90
2023-03-21T06:39:23.431Z,10.90
2023-03-21T06:41:50.496Z,11.00
2023-03-21T06:44:17.426Z,11.20
2023-03-21T06:46:44.358Z,11.30
2023-03-21T06:49:11.501Z,11.30
2023-03-21T06:51:38.378Z,11.20
2023-03-21T06:54:05.398Z,11.20
2023-03-21T06:56:32.386Z,11.20
2023-03-21T06:58:59.314Z,11.20
2023-03-21T07:01:27.710Z,11.30
2023-03-21T07:03:58.296Z,11.40
2023-03-21T07:06:28.494Z,11.40
2023-03-21T07:08:56.331Z,11.60
2023-03-21T07:11:24.487Z,11.50
2023-03-21T07:13:51.960Z,11.50
2023-03-21T07:16:21.497Z,11.70
2023-03-21T07:18:49.034Z,11.70
2023-03-21T07:21:16.197Z,11.70
2023-03-21T07:23:43.652Z,11.80
2023-03-21T07:26:10.750Z,12.00
2023-03-21T07:28:37.685Z,11.90
2023-03-21T07:31:06.858Z,12.00
2023-03-21T07:33:34.177Z,12.10
2023-03-21T07:36:02.273Z,12.20
2023-03-21T07:38:30.955Z,12.50
2023-03-21T07:41:01.404Z,12.40
2023-03-21T07:43:28.412Z,12.40
2023-03-21T07:46:01.649Z,12.50
2023-03-21T07:48:29.740Z,12.60
2023-03-21T07:50:58.269Z,12.50
2023-03-21T07:53:25.624Z,12.50
2023-03-21T07:55:55.706Z,12.50
2023-03-21T07:58:24.654Z,12.60
2023-03-21T08:00:51.980Z,12.60
2023-03-21T08:03:19.550Z,12.70
2023-03-21T08:05:46.816Z,12.70
2023-03-21T08:08:14.152Z,12.80
2023-03-21T08:10:44.261Z,12.80
2023-03-21T08:13:11.802Z,12.80
2023-03-21T08:15:42.524Z,12.80
2023-03-21T08:18:12.953Z,12.90
2023-03-21T08:20:40.347Z,12.90
2023-03-21T08:23:07.769Z,12.90
2023-03-21T08:25:34.970Z,13.00
2023-03-21T08:28:02.171Z,13.00
2023-03-21T08:30:30.264Z,12.90
2023-03-21T08:33:01.085Z,13.10
2023-03-21T08:35:29.717Z,13.10
2023-03-21T08:37:57.342Z,13.00
2023-03-21T08:40:24.869Z,13.10
2023-03-21T08:42:52.263Z,13.30
2023-03-21T08:45:19.536Z,13.50
2023-03-21T08:47:52.313Z,13.70
2023-03-21T08:50:21.634Z,14.00
2023-03-21T08:52:49.580Z,14.20
2023-03-21T08:55:18.727Z,14.50
2023-03-21T08:57:46.563Z,14.50
2023-03-21T09:00:22.095Z,14.70
2023-03-21T09:02:52.684Z,14.90
2023-03-21T09:05:21.840Z,15.00
2023-03-21T09:07:49.774Z,15.00
2023-03-21T09:10:21.923Z,15.10
2023-03-21T09:12:51.257Z,15.20
2023-03-21T09:15:24.518Z,15.30
2023-03-21T09:17:54.740Z,15.30
2023-03-21T09:20:26.548Z,15.30
2023-03-21T09:22:54.397Z,15.40
2023-03-21T09:25:25.025Z,15.40
2023-03-21T09:27:52.595Z,15.50
2023-03-21T09:30:27.077Z,15.60
2023-03-21T09:32:55.964Z,15.60
2023-03-21T09:35:28.812Z,15.60
2023-03-21T09:37:59.712Z,15.60
2023-03-21T09:40:32.845Z,15.70
2023-03-21T09:43:18.409Z,15.70
2023-03-21T09:46:16.310Z,15.70
2023-03-21T09:48:58.443Z,15.70
2023-03-21T09:51:34.939Z,16.10
2023-03-21T09:54:09.046Z,16.30
2023-03-21T09:56:38.563Z,16.20
2023-03-21T09:59:07.737Z,16.10
2023-03-21T10:01:45.730Z,15.90
2023-03-21T10:04:28.029Z,15.90
2023-03-21T10:07:01.911Z,15.90
2023-03-21T10:09:32.645Z,15.90
2023-03-21T10:12:32.073Z,16.00
2023-03-21T10:15:01.623Z,16.10
2023-03-21T10:17:42.137Z,16.00
2023-03-21T10:20:26.333Z,16.10
2023-03-21T10:22:58.360Z,16.20
2023-03-21T10:25:41.303Z,16.20
2023-03-21T10:28:15.518Z,16.20
2023-03-21T10:30:47.881Z,16.20
2023-03-21T10:33:20.461Z,16.20
2023-03-21T10:35:53.257Z,16.20
2023-03-21T10:38:23.195Z,16.10
2023-03-21T10:40:50.400Z,16.00
2023-03-21T10:43:37.501Z,15.90
2023-03-21T10:46:24.130Z,15.90
2023-03-21T10:48:53.026Z,16.10
2023-03-21T10:51:23.319Z,16.20
2023-03-21T10:53:54.141Z,16.40
2023-03-21T10:56:28.549Z,16.60
2023-03-21T10:58:58.673Z,16.80
2023-03-21T11:01:38.554Z,17.00
2023-03-21T11:04:22.876Z,17.30
2023-03-21T11:07:14.429Z,17.50
2023-03-21T11:09:54.283Z,17.80
2023-03-21T11:12:37.386Z,18.00
2023-03-21T11:17:39.214Z,18.40
2023-03-21T11:20:10.717Z,18.40
2023-03-21T11:22:41.224Z,18.40
2023-03-21T11:25:12.156Z,18.40
2023-03-21T11:27:49.066Z,18.40
2023-03-21T11:30:27.623Z,18.40
2023-03-21T11:32:57.816Z,18.10
2023-03-21T11:35:32.325Z,17.90
2023-03-21T11:37:59.290Z,17.70
2023-03-21T11:40:31.557Z,17.70
2023-03-21T11:43:29.557Z,17.70
2023-03-21T11:46:05.472Z,17.60
2023-03-21T11:48:40.703Z,17.50
2023-03-21T11:51:21.247Z,17.20
2023-03-21T11:54:00.473Z,17.00
2023-03-21T11:56:40.630Z,16.80
2023-03-21T11:59:35.491Z,16.80
2023-03-21T12:02:23.776Z,16.70
2023-03-21T12:05:20.284Z,16.70
2023-03-21T12:08:05.930Z,16.80
2023-03-21T12:10:40.786Z,16.80
2023-03-21T12:13:07.566Z,16.80
2023-03-21T12:16:04.455Z,16.90
2023-03-21T12:18:56.570Z,16.70
2023-03-21T12:21:35.407Z,16.50
2023-03-21T12:24:19.287Z,16.40
2023-03-21T12:27:05.262Z,16.30
2023-03-21T12:30:00.695Z,16.20
2023-03-21T12:33:13.581Z,16.10
2023-03-21T12:36:09.282Z,16.10
2023-03-21T12:39:12.039Z,16.00
2023-03-21T12:42:07.235Z,16.00
2023-03-21T12:44:39.014Z,16.10
2023-03-21T12:47:23.341Z,16.20
2023-03-21T12:50:08.915Z,16.40
2023-03-21T12:52:42.078Z,16.30
2023-03-21T12:55:21.821Z,16.30
2023-03-21T12:58:06.860Z,16.20
2023-03-21T13:00:40.111Z,16.20
2023-03-21T13:03:27.685Z,16.30
2023-03-21T13:06:09.547Z,16.10
2023-03-21T13:08:48.648Z,16.10
2023-03-21T13:14:36.903Z,15.90
2023-03-21T13:17:16.254Z,15.70
2023-03-21T13:20:06.716Z,15.60
2023-03-21T13:22:33.968Z,15.40
2023-03-21T13:25:05.842Z,15.20
2023-03-21T13:27:36.041Z,15.10
2023-03-21T13:30:14.344Z,15.10
2023-03-21T13:32:44.128Z,15.00
2023-03-21T13:35:33.116Z,15.00
2023-03-21T13:38:12.753Z,15.00
2023-03-21T13:40:50.179Z,14.70
2023-03-21T13:43:42.066Z,14.50
2023-03-21T13:46:34.117Z,14.40
2023-03-21T13:49:10.661Z,14.40
2023-03-21T13:51:41.470Z,14.30
2023-03-21T13:54:08.697Z,14.30
2023-03-21T13:56:45.171Z,14.30
2023-03-21T13:59:17.058Z,14.40
2023-03-21T14:02:00.548Z,14.40
2023-03-21T14:04:42.396Z,14.40
2023-03-21T14:07:23.365Z,14.40
2023-03-21T14:09:52.920Z,14.60
2023-03-21T14:12:26.331Z,14.40
2023-03-21T14:15:13.942Z,14.30
2023-03-21T14:17:56.743Z,14.30
2023-03-21T14:20:27.620Z,14.30
2023-03-21T14:22:58.801Z,14.30
2023-03-21T14:25:40.786Z,14.20
2023-03-21T14:28:21.177Z,14.20
2023-03-21T14:30:54.689Z,14.30
2023-03-21T14:33:35.404Z,14.20
2023-03-21T14:36:16.764Z,14.20
2023-03-21T14:38:53.411Z,14.30
2023-03-21T14:41:31.611Z,14.30
2023-03-21T14:44:03.880Z,14.30
2023-03-21T14:46:31.417Z,14.30
2023-03-21T14:49:12.072Z,14.30
2023-03-21T14:51:46.922Z,14.30
2023-03-21T14:54:24.197Z,14.30
2023-03-21T14:56:57.065Z,14.30
2023-03-21T14:59:28.232Z,14.20
2023-03-21T15:01:55.472Z,14.20
2023-03-21T15:04:22.880Z,14.20
2023-03-21T15:07:13.970Z,14.20
2023-03-21T15:10:30.348Z,14.20
2023-03-21T15:21:31.222Z,13.70
2023-03-21T15:30:52.111Z,13.50
2023-03-21T15:33:25.840Z,13.70
2023-03-21T15:36:00.412Z,13.70
2023-03-21T15:38:40.003Z,13.60
2023-03-21T15:41:15.408Z,13.60
2023-03-21T15:43:43.516Z,13.70
2023-03-21T15:52:36.943Z,13.60
2023-03-21T15:55:22.741Z,13.50
2023-03-21T15:57:51.746Z,13.50
2023-03-21T16:00:40.890Z,13.50
2023-03-21T16:03:27.415Z,13.50
2023-03-21T16:09:22.235Z,13.40
2023-03-21T16:11:59.603Z,13.40
2023-03-21T16:14:28.420Z,13.50
2023-03-21T16:17:03.428Z,13.40
2023-03-21T16:19:33.180Z,13.50
2023-03-21T16:22:00.376Z,13.40
2023-03-21T16:24:27.668Z,13.40
2023-03-21T16:26:55.175Z,13.40
2023-03-21T16:29:22.615Z,13.30
2023-03-21T16:31:49.856Z,13.20
2023-03-21T16:34:17.231Z,13.20
2023-03-21T16:36:44.213Z,13.10
2023-03-21T16:39:23.196Z,13.00
2023-03-21T16:41:51.423Z,13.10
2023-03-21T16:44:52.127Z,13.10
2023-03-21T16:47:23.257Z,13.10
2023-03-21T16:49:50.935Z,13.00
2023-03-21T16:52:21.043Z,13.00
2023-03-21T16:54:48.066Z,12.90
2023-03-21T16:57:27.914Z,12.90
2023-03-21T16:59:56.334Z,12.80
2023-03-21T17:02:26.253Z,12.70
2023-03-21T17:04:56.426Z,12.70
2023-03-21T17:07:23.626Z,12.70
2023-03-21T17:09:57.794Z,12.70
2023-03-21T17:12:24.779Z,12.60
2023-03-21T17:14:51.723Z,12.60
2023-03-21T17:17:18.581Z,12.50
2023-03-21T17:19:46.549Z,12.50
2023-03-21T17:22:14.667Z,12.50
2023-03-21T17:24:41.774Z,12.50
2023-03-21T17:27:17.701Z,12.40
2023-03-21T17:29:45.004Z,12.50
2023-03-21T17:32:11.937Z,12.40
2023-03-21T17:34:38.766Z,12.40
2023-03-21T17:37:05.932Z,12.40
2023-03-21T17:39:35.085Z,12.40
2023-03-21T17:42:01.948Z,12.40
2023-03-21T17:44:28.820Z,12.40
2023-03-21T17:46:55.863Z,12.40
2023-03-21T17:49:22.982Z,12.40
2023-03-21T17:51:50.374Z,12.40
2023-03-21T17:54:17.261Z,12.30
2023-03-21T17:56:44.133Z,12.30
2023-03-21T17:59:14.563Z,12.30
2023-03-21T18:01:42.588Z,12.30
2023-03-21T18:04:09.608Z,12.30
2023-03-21T18:06:53.521Z,12.30
2023-03-21T18:10:01.991Z,12.30
2023-03-21T18:12:40.963Z,12.30
2023-03-21T18:16:04.917Z,12.30
2023-03-21T18:18:52.016Z,12.30
2023-03-21T18:22:35.671Z,12.30
2023-03-21T18:25:49.012Z,12.20
2023-03-21T18:30:22.207Z,12.20
2023-03-21T18:31:36.885Z,12.20
2023-03-21T18:34:46.569Z,12.20
2023-03-21T18:37:36.215Z,12.20
2023-03-21T18:40:29.072Z,12.20
2023-03-21T18:43:49.937Z,12.20
2023-03-21T18:45:59.170Z,12.30
2023-03-21T18:48:26.169Z,12.30
2023-03-21T18:50:53.140Z,12.20
2023-03-21T18:53:22.046Z,12.20
2023-03-21T18:55:52.354Z,12.20
2023-03-21T18:58:19.385Z,12.20
2023-03-21T19:00:46.765Z,12.20
2023-03-21T19:03:24.868Z,12.20
2023-03-21T19:06:01.165Z,12.10
2023-03-21T19:08:28.035Z,12.10
2023-03-21T19:10:59.589Z,12.10
2023-03-21T19:13:28.482Z,12.10
2023-03-21T19:15:56.238Z,12.10
2023-03-21T19:18:41.513Z,12.10
2023-03-21T19:21:10.407Z,12.00
2023-03-21T19:24:11.672Z,12.00
2023-03-21T19:26:25.978Z,12.00
2023-03-21T19:28:54.016Z,12.00
2023-03-21T19:31:21.877Z,11.90
2023-03-21T19:33:48.913Z,12.00
2023-03-21T19:36:21.779Z,12.00
2023-03-21T19:38:49.335Z,12.00
2023-03-21T19:41:17.540Z,12.00
2023-03-21T19:43:53.586Z,11.90
2023-03-21T19:46:24.508Z,12.00
2023-03-21T19:48:51.558Z,12.00
2023-03-21T19:51:28.143Z,12.00
2023-03-21T19:53:55.586Z,12.00
2023-03-21T19:56:26.594Z,12.00
2023-03-21T19:58:55.226Z,12.00
2023-03-21T20:01:23.998Z,12.00
2023-03-21T20:03:51.478Z,12.00
2023-03-21T20:06:19.048Z,12.00
2023-03-21T20:09:34.133Z,11.90
2023-03-21T20:11:34.323Z,11.90
2023-03-21T20:14:03.519Z,11.90
2023-03-21T20:16:35.447Z,11.90
2023-03-21T20:19:08.884Z,11.90
2023-03-21T20:21:46.111Z,11.90
2023-03-21T20:24:17.140Z,11.90
2023-03-21T20:26:47.281Z,11.90
2023-03-21T20:32:01.415Z,11.90
2023-03-21T20:34:30.382Z,11.80
2023-03-21T20:36:58.268Z,11.80
2023-03-21T20:39:28.566Z,11.90
2023-03-21T20:41:56.287Z,11.80
2023-03-21T20:47:10.524Z,11.80
2023-03-21T20:49:37.516Z,11.70
2023-03-21T20:55:00.080Z,11.70
2023-03-21T20:57:28.116Z,11.70
2023-03-21T20:59:55.680Z,11.60
2023-03-21T21:02:23.797Z,11.60
2023-03-21T21:05:21.940Z,11.50
2023-03-21T21:07:41.814Z,11.50
2023-03-21T21:10:14.450Z,11.50
2023-03-21T21:12:45.605Z,11.50
2023-03-21T21:15:14.818Z,11.50
2023-03-21T21:20:30.554Z,11.60
2023-03-21T21:23:00.009Z,11.60
2023-03-21T21:25:29.618Z,11.60
2023-03-21T21:27:56.448Z,11.60
2023-03-21T21:30:23.696Z,11.60
2023-03-21T21:32:50.671Z,11.60
2023-03-21T21:35:19.481Z,11.60
2023-03-21T21:37:46.482Z,11.60
2023-03-21T21:40:15.605Z,11.50
2023-03-21T21:42:43.997Z,11.50
2023-03-21T21:45:12.693Z,11.40
2023-03-21T21:47:39.872Z,11.40
2023-03-21T21:50:07.751Z,11.60
2023-03-21T21:52:34.956Z,11.30
2023-03-21T21:55:02.389Z,11.20
2023-03-21T21:57:33.932Z,11.10
2023-03-21T22:00:06.850Z,11.20
2023-03-21T22:02:33.967Z,11.00
2023-03-21T22:05:01.106Z,10.90
2023-03-21T22:07:28.048Z,10.90
2023-03-21T22:09:55.291Z,11.00
2023-03-21T22:12:22.122Z,10.90
2023-03-21T22:14:49.062Z,10.90
2023-03-21T22:17:17.159Z,10.90
2023-03-21T22:19:52.701Z,10.70
2023-03-21T22:22:25.981Z,10.70
2023-03-21T22:24:56.143Z,10.70
2023-03-21T22:27:23.082Z,10.70
2023-03-21T22:29:49.928Z,10.70
2023-03-21T22:32:16.974Z,11.00
2023-03-21T22:34:43.804Z,11.00
2023-03-21T22:37:10.976Z,10.80
2023-03-21T22:39:38.003Z,10.80
2023-03-21T22:42:05.747Z,10.90
2023-03-21T22:44:35.963Z,10.90
2023-03-21T22:47:05.265Z,10.80
2023-03-21T22:49:32.897Z,10.90
2023-03-21T22:52:01.153Z,10.80
2023-03-21T22:54:28.076Z,10.80
2023-03-21T22:56:55.352Z,10.90
2023-03-21T22:59:22.396Z,10.90
2023-03-21T23:01:49.663Z,10.80
2023-03-21T23:04:16.888Z,10.70
2023-03-21T23:06:44.290Z,10.90
2023-03-21T23:09:11.380Z,10.70
2023-03-21T23:11:38.881Z,10.90
2023-03-21T23:14:08.429Z,10.70
2023-03-21T23:16:38.346Z,10.70
2023-03-21T23:19:06.138Z,10.70
2023-03-21T23:21:35.087Z,10.80
2023-03-21T23:24:02.141Z,10.80
2023-03-21T23:26:29.198Z,10.70
2023-03-21T23:28:56.189Z,10.70
2023-03-21T23:31:25.256Z,10.90
2023-03-21T23:33:53.408Z,10.80
2023-03-21T23:36:21.195Z,10.80
2023-03-21T23:38:48.188Z,10.80
2023-03-21T23:41:18.902Z,10.80
2023-03-21T23:43:46.637Z,10.90
2023-03-21T23:46:15.766Z,10.90
2023-03-21T23:48:43.848Z,10.90
2023-03-21T23:51:12.213Z,10.90
2023-03-21T23:53:39.329Z,11.00
2023-03-21T23:56:15.261Z,10.70
2023-03-21T23:58:42.465Z,10.60
